createdAt,value
2022-10-16T00:01:07.502Z,1.00
2022-10-16T00:03:35.713Z,1.00
2022-10-16T00:06:03.982Z,1.00
2022-10-16T00:08:32.121Z,99.90
2022-10-16T00:11:04.963Z,99.90
2022-10-16T00:13:35.773Z,99.90
2022-10-16T00:16:05.523Z,99.90
2022-10-16T00:18:33.776Z,99.90
2022-10-16T00:21:04.760Z,99.90
2022-10-16T00:23:33.025Z,93.80
2022-10-16T00:26:03.969Z,70.90
2022-10-16T00:28:32.061Z,99.90
2022-10-16T00:31:06.016Z,1.00
2022-10-16T00:33:34.068Z,1.00
2022-10-16T00:36:02.698Z,99.90
2022-10-16T00:38:30.841Z,1.00
2022-10-16T00:40:59.376Z,99.90
2022-10-16T00:43:42.121Z,99.90
2022-10-16T00:46:17.884Z,99.90
2022-10-16T00:48:51.487Z,33.50
2022-10-16T00:51:23.801Z,83.10
2022-10-16T00:53:52.627Z,99.90
2022-10-16T00:56:20.815Z,99.90
2022-10-16T00:58:49.041Z,97.00
2022-10-16T01:01:18.828Z,99.90
2022-10-16T01:03:47.115Z,99.90
2022-10-16T01:09:13.167Z,99.90
2022-10-16T01:11:47.135Z,99.90
2022-10-16T01:14:23.845Z,99.90
2022-10-16T01:17:00.337Z,99.90
2022-10-16T01:19:43.188Z,99.90
2022-10-16T01:22:11.918Z,1.00
2022-10-16T01:24:42.611Z,1.00
2022-10-16T01:27:16.974Z,1.00
2022-10-16T01:29:54.183Z,1.00
2022-10-16T01:32:29.930Z,1.00
2022-10-16T01:35:03.913Z,1.00
2022-10-16T01:37:38.852Z,1.00
2022-10-16T01:40:11.577Z,1.00
2022-10-16T01:42:44.064Z,1.00
2022-10-16T01:45:15.493Z,1.00
2022-10-16T01:47:45.076Z,1.00
2022-10-16T01:50:16.235Z,1.00
2022-10-16T01:52:48.500Z,1.00
2022-10-16T01:55:20.615Z,1.00
2022-10-16T01:57:53.305Z,99.90
2022-10-16T02:00:24.549Z,99.90
2022-10-16T02:02:56.791Z,99.70
2022-10-16T02:05:30.276Z,1.00
2022-10-16T02:08:00.454Z,1.00
2022-10-16T02:10:32.654Z,1.00
2022-10-16T02:13:06.868Z,22.20
2022-10-16T02:15:35.065Z,1.00
2022-10-16T02:18:04.474Z,1.00
2022-10-16T02:20:38.048Z,1.00
2022-10-16T02:23:06.179Z,1.00
2022-10-16T02:25:39.493Z,1.00
2022-10-16T02:28:14.959Z,1.00
2022-10-16T02:30:47.811Z,1.00
2022-10-16T02:33:17.873Z,1.00
2022-10-16T02:35:48.577Z,1.00
2022-10-16T02:38:18.463Z,1.00
2022-10-16T02:40:47.072Z,1.00
2022-10-16T02:43:16.869Z,1.00
2022-10-16T02:45:44.970Z,1.00
2022-10-16T02:48:13.151Z,1.00
2022-10-16T02:50:41.215Z,1.00
2022-10-16T02:53:09.279Z,1.00
2022-10-16T02:55:37.342Z,1.00
2022-10-16T02:58:05.479Z,56.90
2022-10-16T03:00:34.921Z,99.90
2022-10-16T03:03:02.906Z,99.90
2022-10-16T03:05:30.997Z,99.90
2022-10-16T03:08:01.011Z,99.90
2022-10-16T03:10:29.392Z,1.00
2022-10-16T03:12:57.639Z,1.00
2022-10-16T03:15:26.840Z,1.00
2022-10-16T03:17:56.273Z,1.00
2022-10-16T03:20:24.607Z,1.00
2022-10-16T03:22:52.776Z,1.00
2022-10-16T03:25:20.829Z,1.00
2022-10-16T03:27:48.824Z,1.00
2022-10-16T03:30:17.447Z,1.00
2022-10-16T03:32:46.691Z,1.00
2022-10-16T03:35:16.263Z,1.00
2022-10-16T03:37:44.281Z,1.00
2022-10-16T03:40:12.922Z,1.00
2022-10-16T03:42:40.973Z,1.00
2022-10-16T03:45:09.657Z,1.00
2022-10-16T03:47:37.895Z,1.00
2022-10-16T03:50:06.985Z,9.20
2022-10-16T03:52:36.470Z,1.00
2022-10-16T03:55:04.653Z,1.00
2022-10-16T03:57:32.684Z,1.00
2022-10-16T04:00:00.829Z,1.00
2022-10-16T04:02:28.935Z,1.00
2022-10-16T04:04:56.888Z,1.00
2022-10-16T04:07:25.193Z,1.00
2022-10-16T04:09:54.776Z,1.00
2022-10-16T04:12:22.935Z,1.00
2022-10-16T04:14:50.955Z,1.00
2022-10-16T04:17:19.313Z,1.00
2022-10-16T04:19:47.365Z,1.00
2022-10-16T04:22:15.504Z,1.00
2022-10-16T04:24:43.483Z,99.90
2022-10-16T04:27:13.004Z,99.90
2022-10-16T04:29:41.064Z,99.90
2022-10-16T04:32:10.520Z,99.90
2022-10-16T04:34:41.167Z,99.90
2022-10-16T04:37:09.333Z,99.90
2022-10-16T04:39:37.416Z,99.90
2022-10-16T04:42:05.738Z,99.90
2022-10-16T04:44:35.073Z,99.90
2022-10-16T04:47:03.309Z,99.90
2022-10-16T04:49:31.309Z,1.00
2022-10-16T04:51:59.327Z,1.00
2022-10-16T04:54:27.369Z,1.00
2022-10-16T04:56:55.537Z,1.00
2022-10-16T04:59:24.271Z,1.00
2022-10-16T05:01:53.867Z,1.00
2022-10-16T05:04:21.960Z,1.00
2022-10-16T05:06:50.299Z,1.00
2022-10-16T05:09:18.589Z,70.50
2022-10-16T05:11:46.618Z,53.80
2022-10-16T05:14:14.658Z,87.90
2022-10-16T05:16:42.652Z,99.90
2022-10-16T05:19:28.276Z,99.90
2022-10-16T05:21:56.961Z,99.90
2022-10-16T05:24:25.016Z,99.90
2022-10-16T05:26:53.287Z,99.90
2022-10-16T05:29:21.396Z,99.90
2022-10-16T05:31:52.704Z,99.90
2022-10-16T05:34:22.792Z,99.90
2022-10-16T05:36:51.060Z,99.90
2022-10-16T05:39:19.077Z,99.90
2022-10-16T05:41:47.115Z,99.90
2022-10-16T05:44:15.219Z,99.90
2022-10-16T05:46:43.216Z,99.90
2022-10-16T05:49:11.278Z,99.90
2022-10-16T05:51:40.650Z,99.90
2022-10-16T05:54:08.670Z,99.90
2022-10-16T05:56:36.714Z,99.90
2022-10-16T05:59:05.694Z,99.90
2022-10-16T06:01:34.452Z,99.90
2022-10-16T06:04:03.061Z,99.90
2022-10-16T06:06:31.991Z,99.90
2022-10-16T06:09:01.410Z,99.90
2022-10-16T06:11:31.477Z,99.90
2022-10-16T06:14:02.785Z,99.90
2022-10-16T06:16:31.320Z,99.90
2022-10-16T06:19:00.189Z,1.00
2022-10-16T06:21:29.476Z,1.00
2022-10-16T06:23:59.415Z,1.00
2022-10-16T06:26:31.199Z,1.00
2022-10-16T06:29:01.366Z,1.00
2022-10-16T06:31:32.107Z,1.00
2022-10-16T06:34:00.685Z,1.00
2022-10-16T06:36:29.657Z,1.00
2022-10-16T06:38:58.360Z,1.00
2022-10-16T06:41:27.876Z,1.00
2022-10-16T06:43:55.899Z,1.00
2022-10-16T06:46:25.810Z,1.00
2022-10-16T06:48:55.096Z,1.00
2022-10-16T06:51:24.545Z,1.00
2022-10-16T06:54:03.497Z,1.00
2022-10-16T06:56:34.579Z,1.00
2022-10-16T06:59:02.932Z,1.00
2022-10-16T07:01:31.301Z,1.00
2022-10-16T07:03:59.812Z,1.00
2022-10-16T07:06:29.099Z,1.00
2022-10-16T07:08:57.507Z,1.00
2022-10-16T07:11:26.124Z,1.00
2022-10-16T07:13:56.545Z,1.00
2022-10-16T07:16:26.208Z,1.00
2022-10-16T07:18:59.171Z,1.00
2022-10-16T07:21:29.615Z,1.00
2022-10-16T07:23:59.312Z,1.00
2022-10-16T07:26:28.744Z,1.00
2022-10-16T07:28:58.660Z,1.00
2022-10-16T07:31:27.192Z,1.00
2022-10-16T07:33:55.847Z,1.00
2022-10-16T07:36:24.054Z,1.00
2022-10-16T07:38:54.193Z,1.00
2022-10-16T07:41:25.353Z,1.00
2022-10-16T07:43:55.448Z,1.00
2022-10-16T07:46:25.344Z,1.00
2022-10-16T07:48:54.173Z,99.90
2022-10-16T07:51:26.121Z,99.90
2022-10-16T07:53:55.078Z,99.90
2022-10-16T07:56:23.690Z,99.90
2022-10-16T07:58:52.922Z,99.90
2022-10-16T08:01:21.663Z,99.90
2022-10-16T08:03:53.168Z,99.90
2022-10-16T08:06:26.728Z,99.90
2022-10-16T08:08:56.991Z,99.90
2022-10-16T08:11:25.620Z,99.90
2022-10-16T08:13:53.723Z,85.50
2022-10-16T08:16:22.194Z,42.90
2022-10-16T08:18:52.506Z,99.90
2022-10-16T08:21:23.983Z,99.90
2022-10-16T08:23:56.730Z,99.90
2022-10-16T08:26:27.726Z,1.00
2022-10-16T08:28:56.155Z,1.00
2022-10-16T08:31:24.544Z,1.00
2022-10-16T08:33:53.941Z,1.00
2022-10-16T08:36:22.173Z,1.00
2022-10-16T08:38:52.125Z,1.00
2022-10-16T08:41:56.435Z,1.00
2022-10-16T08:44:52.656Z,1.00
2022-10-16T08:47:25.018Z,1.00
2022-10-16T08:49:58.997Z,1.00
2022-10-16T08:52:31.852Z,1.00
2022-10-16T08:54:59.963Z,1.00
2022-10-16T08:57:28.713Z,1.00
2022-10-16T09:00:01.602Z,1.00
2022-10-16T09:02:36.096Z,1.00
2022-10-16T09:05:26.922Z,1.00
2022-10-16T09:08:05.557Z,1.00
2022-10-16T09:10:42.612Z,1.00
2022-10-16T09:13:20.440Z,1.00
2022-10-16T09:15:54.801Z,1.00
2022-10-16T09:18:31.781Z,1.00
2022-10-16T09:21:09.513Z,1.00
2022-10-16T09:23:39.266Z,1.00
2022-10-16T09:26:11.481Z,1.00
2022-10-16T09:28:39.686Z,1.00
2022-10-16T09:31:10.894Z,1.00
2022-10-16T09:33:41.738Z,1.00
2022-10-16T09:36:14.518Z,1.00
2022-10-16T09:38:42.599Z,1.00
2022-10-16T09:41:18.697Z,1.00
2022-10-16T09:43:53.610Z,1.00
2022-10-16T09:46:28.392Z,1.00
2022-10-16T09:48:58.558Z,1.00
2022-10-16T09:51:29.811Z,1.00
2022-10-16T09:54:01.224Z,1.00
2022-10-16T09:56:31.657Z,1.00
2022-10-16T09:59:01.903Z,1.00
2022-10-16T10:01:37.321Z,1.00
2022-10-16T10:04:06.465Z,1.00
2022-10-16T10:06:38.942Z,1.00
2022-10-16T10:09:21.464Z,1.00
2022-10-16T10:11:53.135Z,1.00
2022-10-16T10:14:27.513Z,1.00
2022-10-16T10:17:11.344Z,1.00
2022-10-16T10:19:41.747Z,1.00
2022-10-16T10:22:29.386Z,1.00
2022-10-16T10:25:37.557Z,1.00
2022-10-16T10:28:46.269Z,1.00
2022-10-16T10:31:21.148Z,1.00
2022-10-16T10:33:55.832Z,1.00
2022-10-16T10:36:31.120Z,1.00
2022-10-16T10:39:03.851Z,1.00
2022-10-16T10:41:58.507Z,1.00
2022-10-16T10:44:39.050Z,1.00
2022-10-16T10:47:21.818Z,1.00
2022-10-16T10:49:59.015Z,1.00
2022-10-16T10:52:41.685Z,1.00
2022-10-16T10:55:21.386Z,1.00
2022-10-16T10:58:17.330Z,1.00
2022-10-16T11:00:57.602Z,1.00
2022-10-16T11:03:42.775Z,1.00
2022-10-16T11:06:17.287Z,1.00
2022-10-16T11:08:50.604Z,1.00
2022-10-16T11:11:27.637Z,1.00
2022-10-16T11:14:00.572Z,1.00
2022-10-16T11:16:31.548Z,1.00
2022-10-16T11:19:05.829Z,1.00
2022-10-16T11:21:42.233Z,1.00
2022-10-16T11:24:21.257Z,1.00
2022-10-16T11:26:53.052Z,1.00
2022-10-16T11:29:25.629Z,1.00
2022-10-16T11:31:59.377Z,1.00
2022-10-16T11:34:35.670Z,1.00
2022-10-16T11:37:10.815Z,1.00
2022-10-16T11:39:43.332Z,1.00
2022-10-16T11:42:18.091Z,1.00
2022-10-16T11:44:58.216Z,1.00
2022-10-16T11:47:58.065Z,1.00
2022-10-16T11:50:28.419Z,99.90
2022-10-16T11:53:03.417Z,99.90
2022-10-16T11:55:36.978Z,1.00
2022-10-16T11:58:09.659Z,99.90
2022-10-16T12:00:48.353Z,99.90
2022-10-16T12:03:23.144Z,1.00
2022-10-16T12:06:25.498Z,99.90
2022-10-16T12:08:55.086Z,99.90
2022-10-16T12:11:33.668Z,99.90
2022-10-16T12:14:42.864Z,1.00
2022-10-16T12:17:28.799Z,99.90
2022-10-16T12:20:01.962Z,99.90
2022-10-16T12:22:33.798Z,99.90
2022-10-16T12:25:03.989Z,99.90
2022-10-16T12:27:33.908Z,99.90
2022-10-16T12:30:06.835Z,99.90
2022-10-16T12:32:52.827Z,99.90
2022-10-16T12:35:24.130Z,99.90
2022-10-16T12:37:53.312Z,99.90
2022-10-16T12:40:31.036Z,99.90
2022-10-16T12:42:59.328Z,99.90
2022-10-16T12:45:33.117Z,99.90
2022-10-16T12:48:03.052Z,99.90
2022-10-16T12:50:37.530Z,99.90
2022-10-16T12:53:19.433Z,99.90
2022-10-16T12:55:56.342Z,99.90
2022-10-16T12:58:50.605Z,99.90
2022-10-16T13:01:30.863Z,99.90
2022-10-16T13:04:23.776Z,99.90
2022-10-16T13:07:00.242Z,99.90
2022-10-16T13:09:41.543Z,99.90
2022-10-16T13:12:24.644Z,99.90
2022-10-16T13:15:24.229Z,99.90
2022-10-16T13:18:01.741Z,99.90
2022-10-16T13:20:36.016Z,99.90
2022-10-16T13:23:14.458Z,99.90
2022-10-16T13:25:54.135Z,99.90
2022-10-16T13:28:24.784Z,99.90
2022-10-16T13:30:55.289Z,99.90
2022-10-16T13:33:33.881Z,99.90
2022-10-16T13:36:02.041Z,99.90
2022-10-16T13:38:33.057Z,99.90
2022-10-16T13:41:03.110Z,99.90
2022-10-16T13:43:35.947Z,99.90
2022-10-16T13:46:06.525Z,99.90
2022-10-16T13:48:36.728Z,99.90
2022-10-16T13:51:07.514Z,99.90
2022-10-16T13:53:37.203Z,99.90
2022-10-16T13:56:07.568Z,99.90
2022-10-16T13:58:35.912Z,99.90
2022-10-16T14:01:06.412Z,99.90
2022-10-16T14:03:37.605Z,99.90
2022-10-16T14:06:09.995Z,99.90
2022-10-16T14:08:38.007Z,99.90
2022-10-16T14:11:06.474Z,99.90
2022-10-16T14:13:39.069Z,99.90
2022-10-16T14:16:11.011Z,99.90
2022-10-16T14:18:41.817Z,99.90
2022-10-16T14:21:16.155Z,99.90
2022-10-16T14:23:44.963Z,99.90
2022-10-16T14:26:19.003Z,99.90
2022-10-16T14:28:48.124Z,99.90
2022-10-16T14:31:31.681Z,99.90
2022-10-16T14:34:01.445Z,99.90
2022-10-16T14:36:31.077Z,99.90
2022-10-16T14:39:04.987Z,99.90
2022-10-16T14:41:35.823Z,99.90
2022-10-16T14:44:05.691Z,99.90
2022-10-16T14:46:38.386Z,99.90
2022-10-16T14:49:21.208Z,99.90
2022-10-16T14:51:49.696Z,99.90
2022-10-16T14:54:19.125Z,99.90
2022-10-16T14:56:53.447Z,99.90
2022-10-16T14:59:26.884Z,99.90
2022-10-16T15:01:55.085Z,99.90
2022-10-16T15:04:24.569Z,99.90
2022-10-16T15:06:52.695Z,99.90
2022-10-16T15:09:20.688Z,99.90
2022-10-16T15:11:48.768Z,99.90
2022-10-16T15:14:16.854Z,99.90
2022-10-16T15:16:44.867Z,99.90
2022-10-16T15:19:12.994Z,99.90
2022-10-16T15:21:43.326Z,99.90
2022-10-16T15:24:16.675Z,99.90
2022-10-16T15:26:47.929Z,99.90
2022-10-16T15:29:16.164Z,99.90
2022-10-16T15:31:44.302Z,99.90
2022-10-16T15:34:14.051Z,99.90
2022-10-16T15:36:43.490Z,99.90
2022-10-16T15:39:16.955Z,99.90
2022-10-16T15:41:48.790Z,99.90
2022-10-16T15:44:16.800Z,99.90
2022-10-16T15:46:45.254Z,99.90
2022-10-16T15:49:14.150Z,99.90
2022-10-16T15:51:44.416Z,99.90
2022-10-16T15:54:12.448Z,99.90
2022-10-16T15:56:40.555Z,99.90
2022-10-16T15:59:08.901Z,99.90
2022-10-16T16:01:37.935Z,99.90
2022-10-16T16:04:11.323Z,99.90
2022-10-16T16:06:49.663Z,99.90
2022-10-16T16:09:18.066Z,99.90
2022-10-16T16:11:46.068Z,99.90
2022-10-16T16:14:15.619Z,99.90
2022-10-16T16:16:43.761Z,99.90
2022-10-16T16:19:12.111Z,99.90
2022-10-16T16:21:40.558Z,99.90
2022-10-16T16:24:09.944Z,99.90
2022-10-16T16:26:40.819Z,99.90
2022-10-16T16:29:09.323Z,99.90
2022-10-16T16:31:37.479Z,99.90
2022-10-16T16:34:05.579Z,99.90
2022-10-16T16:36:34.547Z,1.00
2022-10-16T16:39:03.085Z,1.00
2022-10-16T16:41:33.718Z,1.00
2022-10-16T16:44:07.301Z,1.00
2022-10-16T16:46:36.128Z,1.00
2022-10-16T16:49:04.942Z,1.00
2022-10-16T16:51:35.795Z,1.00
2022-10-16T16:54:07.841Z,1.00
2022-10-16T16:56:37.569Z,1.00
2022-10-16T16:59:05.811Z,1.00
2022-10-16T17:01:34.007Z,1.00
2022-10-16T17:04:03.130Z,1.00
2022-10-16T17:06:31.576Z,1.00
2022-10-16T17:09:00.291Z,1.00
2022-10-16T17:11:29.467Z,1.00
2022-10-16T17:14:00.473Z,1.00
2022-10-16T17:16:31.243Z,1.00
2022-10-16T17:19:01.914Z,1.00
2022-10-16T17:21:32.789Z,1.00
2022-10-16T17:24:01.347Z,1.00
2022-10-16T17:26:30.252Z,1.00
2022-10-16T17:29:02.039Z,1.00
2022-10-16T17:31:32.020Z,1.00
2022-10-16T17:34:01.392Z,1.00
2022-10-16T17:36:30.902Z,1.00
2022-10-16T17:39:01.739Z,1.00
2022-10-16T17:41:29.811Z,1.00
2022-10-16T17:43:59.415Z,1.00
2022-10-16T17:46:27.803Z,1.00
2022-10-16T17:48:56.866Z,1.00
2022-10-16T17:51:29.681Z,1.00
2022-10-16T17:53:59.279Z,1.00
2022-10-16T17:56:28.360Z,1.00
2022-10-16T17:59:00.564Z,1.00
2022-10-16T18:01:31.256Z,1.00
2022-10-16T18:04:01.401Z,1.00
2022-10-16T18:06:30.305Z,1.00
2022-10-16T18:08:59.686Z,1.00
2022-10-16T18:11:28.305Z,1.00
2022-10-16T18:13:57.748Z,1.00
2022-10-16T18:16:28.820Z,1.00
2022-10-16T18:18:58.401Z,1.00
2022-10-16T18:21:28.215Z,1.00
2022-10-16T18:23:56.964Z,1.00
2022-10-16T18:26:25.701Z,1.00
2022-10-16T18:28:54.927Z,1.00
2022-10-16T18:31:25.423Z,1.00
2022-10-16T18:33:55.883Z,1.00
2022-10-16T18:36:25.597Z,1.00
2022-10-16T18:38:53.856Z,1.00
2022-10-16T18:41:21.913Z,1.00
2022-10-16T18:43:49.971Z,1.00
2022-10-16T18:46:20.011Z,1.00
2022-10-16T18:48:48.854Z,1.00
2022-10-16T18:51:20.368Z,1.00
2022-10-16T18:53:51.268Z,1.00
2022-10-16T18:56:21.637Z,1.00
2022-10-16T18:58:50.543Z,1.00
2022-10-16T19:01:21.648Z,1.00
2022-10-16T19:03:50.456Z,1.00
2022-10-16T19:06:19.900Z,1.00
2022-10-16T19:08:48.048Z,1.00
2022-10-16T19:11:19.334Z,1.00
2022-10-16T19:13:48.954Z,1.00
2022-10-16T19:16:20.717Z,1.00
2022-10-16T19:18:49.851Z,1.00
2022-10-16T19:21:19.690Z,1.00
2022-10-16T19:23:48.228Z,1.00
2022-10-16T19:26:18.027Z,1.00
2022-10-16T19:28:47.115Z,1.00
2022-10-16T19:31:17.564Z,1.00
2022-10-16T19:33:46.578Z,26.60
2022-10-16T19:36:18.053Z,99.90
2022-10-16T19:38:47.897Z,99.90
2022-10-16T19:41:18.467Z,99.90
2022-10-16T19:43:47.580Z,99.90
2022-10-16T19:46:18.212Z,99.90
2022-10-16T19:48:47.950Z,99.90
2022-10-16T19:51:18.302Z,99.90
2022-10-16T19:53:48.671Z,99.90
2022-10-16T19:56:19.214Z,99.90
2022-10-16T19:58:47.642Z,99.90
2022-10-16T20:01:16.741Z,99.90
2022-10-16T20:03:45.857Z,99.90
2022-10-16T20:06:14.188Z,99.90
2022-10-16T20:08:44.388Z,99.90
2022-10-16T20:11:15.574Z,99.90
2022-10-16T20:13:43.700Z,99.90
2022-10-16T20:16:13.722Z,99.90
2022-10-16T20:18:42.644Z,99.90
2022-10-16T20:21:11.717Z,99.90
2022-10-16T20:23:39.902Z,1.00
2022-10-16T20:26:11.317Z,99.90
2022-10-16T20:28:42.573Z,99.90
2022-10-16T20:31:13.743Z,1.00
2022-10-16T20:33:42.097Z,1.00
2022-10-16T20:36:12.732Z,1.00
2022-10-16T20:38:40.860Z,1.00
2022-10-16T20:41:09.758Z,1.00
2022-10-16T20:43:40.790Z,1.00
2022-10-16T20:46:13.436Z,1.00
2022-10-16T20:48:44.529Z,1.00
2022-10-16T20:51:16.057Z,1.00
2022-10-16T20:53:45.346Z,1.00
2022-10-16T20:56:13.504Z,1.00
2022-10-16T20:58:42.091Z,1.00
2022-10-16T21:01:13.980Z,1.00
2022-10-16T21:03:42.996Z,1.00
2022-10-16T21:06:12.234Z,1.00
2022-10-16T21:08:42.029Z,1.00
2022-10-16T21:11:14.679Z,1.00
2022-10-16T21:13:42.900Z,1.00
2022-10-16T21:16:13.348Z,1.00
2022-10-16T21:18:44.593Z,1.00
2022-10-16T21:21:20.961Z,1.00
2022-10-16T21:23:50.067Z,1.00
2022-10-16T21:26:18.845Z,1.00
2022-10-16T21:28:46.958Z,1.00
2022-10-16T21:31:19.765Z,1.00
2022-10-16T21:33:47.991Z,1.00
2022-10-16T21:36:17.773Z,1.00
2022-10-16T21:41:21.074Z,99.90
2022-10-16T21:43:49.831Z,76.10
2022-10-16T21:46:21.703Z,1.00
2022-10-16T21:48:49.994Z,1.00
2022-10-16T21:51:18.064Z,1.00
2022-10-16T21:53:46.157Z,1.00
2022-10-16T21:56:15.514Z,1.00
2022-10-16T21:58:43.785Z,1.00
2022-10-16T22:01:13.993Z,1.00
2022-10-16T22:03:43.641Z,99.90
2022-10-16T22:06:12.496Z,99.90
2022-10-16T22:08:41.384Z,99.90
2022-10-16T22:11:11.248Z,99.90
2022-10-16T22:13:39.926Z,99.90
2022-10-16T22:16:08.557Z,99.90
2022-10-16T22:18:37.581Z,99.90
2022-10-16T22:21:08.332Z,1.00
2022-10-16T22:23:36.568Z,1.00
2022-10-16T22:26:07.087Z,1.00
2022-10-16T22:28:35.800Z,1.00
2022-10-16T22:31:04.745Z,99.90
2022-10-16T22:36:02.588Z,99.90
2022-10-16T22:38:32.209Z,99.90
2022-10-16T22:41:03.143Z,99.90
2022-10-16T22:43:31.152Z,99.90
2022-10-16T22:46:03.796Z,99.90
2022-10-16T22:48:31.851Z,99.90
2022-10-16T22:50:59.867Z,99.90
2022-10-16T22:53:27.968Z,99.90
2022-10-16T22:55:57.516Z,99.90
2022-10-16T22:58:25.552Z,99.90
2022-10-16T23:00:54.174Z,99.90
2022-10-16T23:03:22.340Z,99.90
2022-10-16T23:05:50.451Z,99.90
2022-10-16T23:08:18.868Z,99.90
2022-10-16T23:10:48.264Z,99.90
2022-10-16T23:13:17.758Z,1.00
2022-10-16T23:15:46.379Z,61.90
2022-10-16T23:18:14.450Z,1.00
2022-10-16T23:20:42.764Z,17.10
2022-10-16T23:23:11.210Z,7.30
2022-10-16T23:25:45.899Z,1.00
2022-10-16T23:30:48.386Z,1.00
2022-10-16T23:33:16.478Z,1.00
2022-10-16T23:35:44.584Z,1.00
2022-10-16T23:38:12.650Z,1.00
2022-10-16T23:40:40.680Z,1.00
2022-10-16T23:43:08.696Z,1.00
2022-10-16T23:45:36.733Z,1.00
2022-10-16T23:48:06.425Z,1.00
2022-10-16T23:50:34.463Z,95.30
2022-10-16T23:53:05.313Z,72.10
2022-10-16T23:55:37.394Z,41.80
2022-10-16T23:58:05.545Z,99.90
